createdAt,value
2023-05-08T00:00:14.053Z,14.78
2023-05-08T00:01:13.581Z,14.79
2023-05-08T00:02:13.621Z,14.69
2023-05-08T00:03:13.628Z,14.68
2023-05-08T00:04:13.727Z,14.68
2023-05-08T00:05:13.542Z,14.73
2023-05-08T00:06:13.525Z,14.70
2023-05-08T00:07:13.504Z,14.72
2023-05-08T00:08:13.516Z,14.65
2023-05-08T00:09:13.484Z,14.68
2023-05-08T00:10:13.776Z,14.78
2023-05-08T00:11:13.484Z,14.78
2023-05-08T00:12:13.459Z,14.72
2023-05-08T00:13:13.503Z,14.70
2023-05-08T00:14:13.436Z,14.79
2023-05-08T00:15:13.447Z,14.79
2023-05-08T00:16:13.459Z,14.70
2023-05-08T00:17:13.393Z,14.59
2023-05-08T00:18:13.388Z,14.62
2023-05-08T00:19:13.374Z,14.62
2023-05-08T00:20:13.533Z,14.68
2023-05-08T00:21:13.364Z,14.65
2023-05-08T00:22:13.360Z,14.66
2023-05-08T00:23:13.327Z,14.66
2023-05-08T00:24:13.324Z,14.68
2023-05-08T00:25:13.311Z,14.62
2023-05-08T00:26:13.300Z,14.66
2023-05-08T00:27:13.306Z,14.73
2023-05-08T00:28:13.287Z,14.68
2023-05-08T00:29:13.315Z,14.70
2023-05-08T00:30:13.615Z,14.58
2023-05-08T00:31:13.240Z,14.68
2023-05-08T00:32:13.321Z,14.66
2023-05-08T00:33:13.287Z,14.62
2023-05-08T00:34:13.216Z,14.66
2023-05-08T00:35:13.202Z,14.60
2023-05-08T00:36:13.190Z,14.62
2023-05-08T00:37:13.184Z,14.60
2023-05-08T00:38:13.188Z,14.60
2023-05-08T00:39:13.152Z,14.60
2023-05-08T00:40:13.387Z,14.51
2023-05-08T00:41:13.157Z,14.50
2023-05-08T00:42:13.128Z,14.53
2023-05-08T00:43:13.167Z,14.50
2023-05-08T00:44:13.106Z,14.45
2023-05-08T00:45:13.114Z,14.48
2023-05-08T00:46:13.139Z,14.45
2023-05-08T00:47:13.070Z,14.58
2023-05-08T00:48:13.064Z,14.55
2023-05-08T00:49:13.037Z,14.55
2023-05-08T00:50:13.225Z,14.50
2023-05-08T00:51:13.018Z,14.50
2023-05-08T00:52:13.026Z,14.44
2023-05-08T00:53:13.021Z,14.43
2023-05-08T00:54:13.001Z,14.35
2023-05-08T00:55:12.994Z,14.43
2023-05-08T00:56:12.963Z,14.35
2023-05-08T00:57:12.965Z,14.36
2023-05-08T00:58:12.964Z,14.37
2023-05-08T00:59:12.934Z,14.41
2023-05-08T01:00:13.137Z,14.32
2023-05-08T01:01:12.974Z,14.29
2023-05-08T01:02:12.916Z,14.33
2023-05-08T01:03:12.998Z,14.22
2023-05-08T01:04:12.914Z,14.28
2023-05-08T01:05:13.036Z,14.23
2023-05-08T01:06:12.855Z,14.18
2023-05-08T01:07:12.844Z,14.08
2023-05-08T01:08:12.835Z,14.15
2023-05-08T01:09:12.839Z,14.08
2023-05-08T01:10:13.115Z,14.10
2023-05-08T01:11:12.818Z,14.07
2023-05-08T01:12:12.788Z,14.00
2023-05-08T01:13:12.810Z,14.04
2023-05-08T01:14:12.781Z,14.07
2023-05-08T01:15:12.770Z,14.03
2023-05-08T01:16:12.781Z,13.97
2023-05-08T01:17:12.783Z,13.93
2023-05-08T01:18:12.749Z,13.90
2023-05-08T01:19:12.712Z,13.92
2023-05-08T01:20:12.958Z,13.81
2023-05-08T01:21:12.717Z,13.90
2023-05-08T01:22:12.681Z,13.86
2023-05-08T01:23:12.670Z,13.89
2023-05-08T01:24:12.678Z,13.90
2023-05-08T01:25:12.644Z,13.96
2023-05-08T01:26:12.635Z,13.89
2023-05-08T01:27:12.632Z,13.87
2023-05-08T01:28:12.618Z,13.97
2023-05-08T01:29:12.598Z,13.96
2023-05-08T01:30:12.780Z,13.96
2023-05-08T01:31:12.580Z,13.92
2023-05-08T01:32:12.568Z,14.00
2023-05-08T01:33:12.669Z,14.00
2023-05-08T01:34:12.546Z,14.11
2023-05-08T01:35:12.546Z,13.99
2023-05-08T01:36:12.540Z,14.04
2023-05-08T01:37:12.518Z,14.00
2023-05-08T01:38:12.501Z,14.10
2023-05-08T01:39:12.520Z,14.14
2023-05-08T01:40:13.100Z,14.18
2023-05-08T01:41:12.494Z,14.08
2023-05-08T01:42:12.457Z,14.18
2023-05-08T01:43:12.448Z,14.07
2023-05-08T01:44:12.439Z,14.10
2023-05-08T01:45:12.442Z,14.03
2023-05-08T01:46:12.485Z,14.03
2023-05-08T01:47:12.425Z,13.99
2023-05-08T01:48:12.395Z,14.00
2023-05-08T01:49:12.419Z,13.93
2023-05-08T01:50:12.561Z,13.95
2023-05-08T01:51:12.354Z,13.93
2023-05-08T01:52:12.347Z,13.99
2023-05-08T01:53:12.350Z,13.97
2023-05-08T01:54:12.348Z,13.95
2023-05-08T01:55:12.312Z,13.89
2023-05-08T01:56:12.310Z,13.93
2023-05-08T01:57:12.290Z,13.95
2023-05-08T01:58:12.308Z,13.90
2023-05-08T01:59:12.303Z,13.90
2023-05-08T02:00:12.479Z,13.97
2023-05-08T02:01:12.280Z,13.97
2023-05-08T02:02:12.286Z,14.05
2023-05-08T02:03:12.295Z,14.05
2023-05-08T02:04:12.247Z,14.04
2023-05-08T02:05:12.267Z,13.96
2023-05-08T02:06:12.191Z,13.95
2023-05-08T02:07:12.180Z,13.92
2023-05-08T02:08:12.172Z,13.87
2023-05-08T02:09:12.154Z,13.92
2023-05-08T02:10:12.325Z,13.96
2023-05-08T02:11:12.173Z,13.89
2023-05-08T02:12:12.132Z,13.92
2023-05-08T02:13:12.223Z,13.87
2023-05-08T02:14:12.100Z,13.93
2023-05-08T02:15:12.109Z,13.78
2023-05-08T02:16:12.145Z,13.81
2023-05-08T02:17:12.089Z,13.79
2023-05-08T02:18:12.062Z,13.74
2023-05-08T02:19:12.044Z,13.83
2023-05-08T02:20:12.278Z,13.81
2023-05-08T02:21:12.053Z,13.83
2023-05-08T02:22:12.018Z,13.77
2023-05-08T02:23:12.033Z,13.83
2023-05-08T02:24:11.986Z,13.74
2023-05-08T02:25:11.985Z,13.71
2023-05-08T02:26:11.985Z,13.71
2023-05-08T02:27:11.955Z,13.68
2023-05-08T02:28:11.947Z,13.65
2023-05-08T02:29:11.972Z,13.70
2023-05-08T02:30:12.242Z,13.65
2023-05-08T02:31:11.929Z,13.71
2023-05-08T02:32:12.013Z,13.68
2023-05-08T02:33:11.937Z,13.67
2023-05-08T02:34:11.878Z,13.63
2023-05-08T02:35:11.878Z,13.71
2023-05-08T02:36:11.893Z,13.65
2023-05-08T02:37:11.953Z,13.63
2023-05-08T02:38:11.848Z,13.52
2023-05-08T02:39:11.864Z,13.52
2023-05-08T02:40:11.972Z,13.49
2023-05-08T02:41:11.803Z,13.47
2023-05-08T02:42:11.827Z,13.50
2023-05-08T02:43:11.780Z,13.46
2023-05-08T02:44:11.767Z,13.54
2023-05-08T02:45:11.758Z,13.49
2023-05-08T02:46:11.807Z,13.57
2023-05-08T02:47:11.761Z,13.60
2023-05-08T02:48:11.722Z,13.53
2023-05-08T02:49:11.719Z,13.49
2023-05-08T02:50:11.886Z,13.42
2023-05-08T02:51:11.686Z,13.42
2023-05-08T02:52:11.689Z,13.35
2023-05-08T02:53:11.896Z,13.30
2023-05-08T02:54:11.650Z,13.33
2023-05-08T02:55:11.651Z,13.33
2023-05-08T02:56:11.633Z,13.37
2023-05-08T02:57:11.650Z,13.31
2023-05-08T02:58:11.626Z,13.25
2023-05-08T02:59:11.606Z,13.20
2023-05-08T03:00:11.895Z,13.20
2023-05-08T03:01:11.605Z,13.23
2023-05-08T03:02:11.561Z,13.28
2023-05-08T03:03:11.646Z,13.28
2023-05-08T03:04:11.558Z,13.30
2023-05-08T03:05:11.542Z,13.37
2023-05-08T03:06:11.515Z,13.38
2023-05-08T03:07:11.509Z,13.31
2023-05-08T03:08:11.513Z,13.25
2023-05-08T03:09:11.522Z,13.25
2023-05-08T03:10:11.841Z,13.25
2023-05-08T03:11:11.493Z,13.23
2023-05-08T03:12:11.466Z,13.25
2023-05-08T03:13:11.468Z,13.18
2023-05-08T03:14:11.468Z,13.31
2023-05-08T03:15:11.422Z,13.15
2023-05-08T03:16:11.457Z,13.30
2023-05-08T03:17:11.392Z,13.23
2023-05-08T03:18:11.389Z,13.15
2023-05-08T03:19:11.380Z,13.23
2023-05-08T03:20:11.515Z,13.13
2023-05-08T03:21:11.351Z,13.28
2023-05-08T03:22:11.336Z,13.28
2023-05-08T03:23:11.340Z,13.20
2023-05-08T03:24:11.336Z,13.27
2023-05-08T03:25:11.324Z,13.25
2023-05-08T03:26:11.294Z,13.28
2023-05-08T03:27:11.292Z,13.25
2023-05-08T03:28:11.284Z,13.19
2023-05-08T03:29:11.275Z,13.28
2023-05-08T03:30:11.480Z,13.22
2023-05-08T03:31:11.286Z,13.16
2023-05-08T03:32:11.223Z,13.20
2023-05-08T03:33:11.217Z,13.31
2023-05-08T03:34:11.200Z,13.31
2023-05-08T03:35:11.226Z,13.33
2023-05-08T03:36:11.178Z,13.37
2023-05-08T03:37:11.173Z,13.35
2023-05-08T03:38:11.154Z,13.27
2023-05-08T03:39:11.172Z,13.27
2023-05-08T03:40:11.308Z,13.16
2023-05-08T03:41:11.193Z,13.22
2023-05-08T03:42:11.129Z,13.27
2023-05-08T03:43:11.102Z,13.16
2023-05-08T03:44:11.098Z,13.15
2023-05-08T03:45:11.082Z,13.12
2023-05-08T03:46:11.100Z,13.16
2023-05-08T03:47:11.103Z,13.04
2023-05-08T03:48:11.105Z,13.03
2023-05-08T03:49:11.044Z,13.13
2023-05-08T03:50:11.210Z,13.16
2023-05-08T03:51:11.031Z,13.08
2023-05-08T03:52:11.000Z,13.12
2023-05-08T03:53:10.992Z,13.01
2023-05-08T03:54:10.989Z,13.13
2023-05-08T03:55:10.973Z,13.08
2023-05-08T03:56:10.966Z,13.16
2023-05-08T03:57:10.995Z,13.16
2023-05-08T03:58:10.945Z,13.15
2023-05-08T03:59:10.933Z,13.18
2023-05-08T04:00:11.068Z,13.18
2023-05-08T04:01:10.932Z,13.20
2023-05-08T04:02:10.928Z,13.15
2023-05-08T04:03:10.987Z,13.16
2023-05-08T04:04:10.910Z,13.16
2023-05-08T04:05:10.870Z,13.16
2023-05-08T04:06:10.884Z,13.18
2023-05-08T04:07:10.871Z,13.18
2023-05-08T04:08:10.832Z,13.30
2023-05-08T04:09:10.828Z,13.13
2023-05-08T04:10:11.048Z,13.27
2023-05-08T04:11:10.827Z,13.13
2023-05-08T04:12:10.812Z,13.23
2023-05-08T04:13:10.919Z,13.15
2023-05-08T04:14:10.779Z,13.05
2023-05-08T04:15:10.774Z,13.16
2023-05-08T04:16:10.762Z,13.01
2023-05-08T04:17:10.846Z,13.12
2023-05-08T04:18:10.778Z,13.03
2023-05-08T04:19:10.710Z,13.12
2023-05-08T04:20:10.697Z,13.05
2023-05-08T04:21:10.705Z,12.95
2023-05-08T04:22:10.720Z,13.01
2023-05-08T04:23:10.673Z,13.04
2023-05-08T04:24:10.653Z,13.08
2023-05-08T04:25:11.072Z,13.00
2023-05-08T04:26:10.647Z,12.97
2023-05-08T04:27:10.636Z,13.01
2023-05-08T04:28:10.636Z,13.04
2023-05-08T04:29:10.627Z,13.08
2023-05-08T04:30:10.587Z,13.03
2023-05-08T04:31:10.581Z,13.05
2023-05-08T04:32:10.778Z,13.01
2023-05-08T04:33:10.580Z,13.09
2023-05-08T04:34:10.546Z,13.09
2023-05-08T04:35:10.678Z,13.01
2023-05-08T04:36:10.519Z,13.05
2023-05-08T04:37:10.522Z,13.04
2023-05-08T04:38:10.515Z,13.00
2023-05-08T04:39:10.494Z,12.94
2023-05-08T04:40:10.489Z,12.95
2023-05-08T04:41:10.478Z,12.91
2023-05-08T04:42:10.454Z,12.93
2023-05-08T04:43:10.471Z,12.87
2023-05-08T04:44:10.444Z,12.93
2023-05-08T04:45:10.710Z,12.93
2023-05-08T04:46:10.436Z,12.85
2023-05-08T04:47:10.405Z,12.87
2023-05-08T04:48:10.400Z,13.00
2023-05-08T04:49:10.395Z,12.95
2023-05-08T04:50:10.370Z,12.90
2023-05-08T04:51:10.357Z,13.04
2023-05-08T04:52:10.345Z,12.98
2023-05-08T04:53:10.336Z,13.00
2023-05-08T04:54:10.321Z,13.16
2023-05-08T04:55:10.543Z,13.12
2023-05-08T04:56:10.317Z,13.16
2023-05-08T04:57:10.293Z,13.19
2023-05-08T04:58:10.289Z,13.15
2023-05-08T04:59:10.270Z,13.18
2023-05-08T05:00:10.272Z,13.18
2023-05-08T05:01:10.314Z,13.11
2023-05-08T05:02:10.235Z,13.18
2023-05-08T05:03:10.274Z,13.30
2023-05-08T05:04:10.253Z,13.09
2023-05-08T05:05:10.439Z,13.16
2023-05-08T05:06:10.185Z,13.20
2023-05-08T05:07:10.193Z,13.16
2023-05-08T05:08:10.161Z,13.09
2023-05-08T05:09:10.152Z,13.16
2023-05-08T05:10:10.157Z,13.15
2023-05-08T05:11:10.146Z,13.01
2023-05-08T05:12:10.133Z,13.13
2023-05-08T05:13:10.165Z,13.13
2023-05-08T05:14:10.129Z,13.12
2023-05-08T05:15:10.283Z,13.13
2023-05-08T05:16:10.123Z,13.13
2023-05-08T05:17:10.089Z,13.13
2023-05-08T05:18:10.083Z,13.22
2023-05-08T05:19:10.054Z,13.27
2023-05-08T05:20:10.056Z,13.25
2023-05-08T05:21:10.037Z,13.30
2023-05-08T05:22:10.030Z,13.27
2023-05-08T05:23:09.994Z,13.31
2023-05-08T05:24:09.984Z,13.23
2023-05-08T05:25:10.068Z,13.28
2023-05-08T05:26:09.978Z,13.20
2023-05-08T05:27:09.981Z,13.22
2023-05-08T05:28:09.939Z,13.15
2023-05-08T05:29:09.924Z,13.20
2023-05-08T05:30:10.073Z,13.30
2023-05-08T05:31:10.012Z,13.12
2023-05-08T05:32:09.887Z,13.16
2023-05-08T05:33:09.996Z,13.16
2023-05-08T05:34:09.888Z,13.19
2023-05-08T05:35:09.960Z,13.27
2023-05-08T05:36:09.846Z,13.30
2023-05-08T05:37:09.866Z,13.08
2023-05-08T05:38:09.854Z,13.16
2023-05-08T05:39:09.823Z,13.04
2023-05-08T05:40:09.819Z,13.03
2023-05-08T05:41:09.794Z,13.12
2023-05-08T05:42:09.806Z,13.13
2023-05-08T05:43:09.794Z,13.04
2023-05-08T05:44:09.761Z,13.01
2023-05-08T05:45:09.799Z,12.98
2023-05-08T05:46:09.755Z,13.00
2023-05-08T05:47:09.859Z,13.01
2023-05-08T05:48:09.789Z,12.86
2023-05-08T05:49:09.723Z,13.03
2023-05-08T05:50:09.773Z,13.05
2023-05-08T05:51:09.681Z,13.12
2023-05-08T05:52:09.664Z,13.12
2023-05-08T05:53:09.667Z,13.13
2023-05-08T05:54:09.669Z,13.27
2023-05-08T05:55:09.629Z,13.22
2023-05-08T05:56:09.618Z,13.20
2023-05-08T05:57:09.620Z,13.35
2023-05-08T05:58:09.619Z,13.16
2023-05-08T05:59:09.599Z,13.30
2023-05-08T06:00:09.572Z,13.30
2023-05-08T06:01:09.571Z,13.25
2023-05-08T06:02:09.573Z,13.23
2023-05-08T06:03:09.688Z,13.22
2023-05-08T06:04:09.577Z,13.30
2023-05-08T06:05:09.595Z,13.20
2023-05-08T06:06:09.507Z,13.28
2023-05-08T06:07:09.498Z,13.25
2023-05-08T06:08:09.482Z,13.15
2023-05-08T06:09:09.509Z,13.18
2023-05-08T06:10:09.471Z,13.46
2023-05-08T06:11:09.452Z,13.70
2023-05-08T06:12:09.438Z,13.78
2023-05-08T06:13:09.529Z,13.78
2023-05-08T06:14:09.416Z,13.81
2023-05-08T06:15:09.459Z,13.92
2023-05-08T06:16:09.395Z,13.92
2023-05-08T06:17:09.399Z,13.90
2023-05-08T06:18:09.511Z,13.96
2023-05-08T06:19:09.368Z,14.07
2023-05-08T06:20:09.365Z,14.14
2023-05-08T06:21:09.401Z,14.04
2023-05-08T06:22:09.342Z,14.05
2023-05-08T06:23:09.319Z,14.15
2023-05-08T06:24:09.308Z,14.20
2023-05-08T06:25:09.321Z,14.20
2023-05-08T06:26:09.302Z,14.17
2023-05-08T06:27:09.275Z,14.25
2023-05-08T06:28:09.391Z,14.18
2023-05-08T06:29:09.257Z,14.14
2023-05-08T06:30:09.269Z,14.03
2023-05-08T06:31:09.297Z,14.14
2023-05-08T06:32:09.228Z,14.08
2023-05-08T06:33:09.216Z,14.29
2023-05-08T06:34:09.208Z,14.32
2023-05-08T06:35:09.204Z,14.37
2023-05-08T06:36:09.195Z,14.33
2023-05-08T06:37:09.187Z,14.53
2023-05-08T06:38:09.158Z,14.66
2023-05-08T06:39:09.154Z,14.96
2023-05-08T06:40:12.558Z,15.18
2023-05-08T06:41:09.134Z,15.46
2023-05-08T06:42:09.114Z,15.59
2023-05-08T06:43:09.096Z,15.76
2023-05-08T06:44:09.096Z,15.95
2023-05-08T06:45:09.101Z,15.98
2023-05-08T06:46:09.182Z,15.94
2023-05-08T06:47:09.080Z,15.86
2023-05-08T06:48:09.077Z,15.92
2023-05-08T06:49:09.036Z,15.90
2023-05-08T06:50:09.050Z,15.91
2023-05-08T06:51:09.038Z,15.91
2023-05-08T06:52:09.012Z,15.88
2023-05-08T06:53:09.012Z,15.73
2023-05-08T06:54:08.980Z,15.67
2023-05-08T06:55:08.966Z,15.58
2023-05-08T06:56:08.972Z,15.49
2023-05-08T06:57:08.941Z,15.46
2023-05-08T06:58:08.946Z,15.36
2023-05-08T06:59:09.351Z,15.25
2023-05-08T07:00:08.915Z,15.37
2023-05-08T07:01:08.969Z,15.25
2023-05-08T07:02:09.224Z,15.27
2023-05-08T07:03:08.933Z,15.15
2023-05-08T07:04:08.936Z,15.07
2023-05-08T07:05:09.015Z,15.04
2023-05-08T07:06:08.850Z,15.14
2023-05-08T07:07:08.836Z,15.07
2023-05-08T07:08:08.830Z,15.19
2023-05-08T07:09:08.980Z,15.06
2023-05-08T07:10:08.822Z,15.07
2023-05-08T07:11:08.788Z,15.03
2023-05-08T07:12:08.814Z,14.97
2023-05-08T07:13:08.831Z,14.92
2023-05-08T07:14:08.767Z,14.92
2023-05-08T07:15:21.697Z,14.79
2023-05-08T07:16:09.770Z,14.72
2023-05-08T07:17:08.728Z,14.72
2023-05-08T07:18:08.738Z,14.68
2023-05-08T07:19:08.703Z,14.68
2023-05-08T07:20:08.699Z,14.68
2023-05-08T07:21:08.699Z,14.72
2023-05-08T07:22:08.706Z,14.70
2023-05-08T07:23:08.682Z,14.77
2023-05-08T07:24:08.646Z,14.84
2023-05-08T07:25:08.677Z,14.82
2023-05-08T07:26:08.630Z,14.73
2023-05-08T07:27:08.606Z,14.66
2023-05-08T07:28:08.607Z,14.60
2023-05-08T07:29:08.587Z,14.59
2023-05-08T07:30:08.616Z,14.63
2023-05-08T07:31:08.621Z,14.68
2023-05-08T07:32:08.611Z,14.72
2023-05-08T07:33:08.570Z,14.79
2023-05-08T07:34:08.542Z,14.81
2023-05-08T07:35:10.339Z,14.92
2023-05-08T07:36:08.519Z,14.96
2023-05-08T07:37:08.495Z,14.92
2023-05-08T07:38:08.499Z,15.00
2023-05-08T07:39:08.477Z,14.88
2023-05-08T07:40:08.490Z,15.03
2023-05-08T07:41:08.548Z,15.09
2023-05-08T07:42:08.442Z,15.09
2023-05-08T07:43:08.429Z,15.09
2023-05-08T07:44:08.450Z,15.21
2023-05-08T07:45:08.411Z,15.24
2023-05-08T07:46:08.418Z,15.27
2023-05-08T07:47:08.527Z,15.24
2023-05-08T07:48:08.511Z,15.35
2023-05-08T07:49:08.366Z,15.29
2023-05-08T07:50:08.355Z,15.31
2023-05-08T07:51:08.345Z,15.33
2023-05-08T07:52:08.336Z,15.33
2023-05-08T07:53:08.325Z,15.35
2023-05-08T07:54:08.308Z,15.36
2023-05-08T07:55:08.293Z,15.37
2023-05-08T07:56:08.283Z,15.49
2023-05-08T07:57:08.312Z,15.47
2023-05-08T07:58:08.265Z,15.42
2023-05-08T07:59:08.265Z,15.51
2023-05-08T08:00:08.243Z,15.61
2023-05-08T08:01:08.244Z,15.59
2023-05-08T08:02:08.255Z,15.65
2023-05-08T08:03:08.398Z,15.62
2023-05-08T08:04:08.340Z,15.72
2023-05-08T08:05:08.198Z,15.62
2023-05-08T08:06:08.201Z,15.67
2023-05-08T08:07:08.169Z,15.73
2023-05-08T08:08:08.233Z,15.73
2023-05-08T08:09:08.136Z,15.68
2023-05-08T08:10:08.139Z,15.88
2023-05-08T08:11:08.138Z,15.95
2023-05-08T08:12:08.128Z,15.86
2023-05-08T08:13:08.310Z,15.86
2023-05-08T08:14:08.083Z,16.02
2023-05-08T08:15:08.075Z,16.09
2023-05-08T08:16:08.062Z,16.16
2023-05-08T08:17:08.136Z,16.17
2023-05-08T08:18:08.098Z,16.31
2023-05-08T08:19:08.033Z,16.36
2023-05-08T08:20:08.035Z,16.41
2023-05-08T08:21:08.004Z,16.42
2023-05-08T08:22:07.996Z,16.46
2023-05-08T08:23:08.000Z,16.42
2023-05-08T08:24:07.981Z,16.46
2023-05-08T08:25:07.963Z,16.46
2023-05-08T08:26:07.959Z,16.47
2023-05-08T08:27:07.936Z,16.56
2023-05-08T08:28:07.953Z,16.51
2023-05-08T08:29:08.061Z,16.53
2023-05-08T08:30:16.824Z,16.60
2023-05-08T08:31:08.923Z,16.64
2023-05-08T08:32:07.888Z,16.71
2023-05-08T08:33:07.915Z,16.75
2023-05-08T08:34:07.866Z,16.66
2023-05-08T08:35:07.866Z,16.58
2023-05-08T08:36:07.853Z,16.61
2023-05-08T08:37:07.840Z,16.64
2023-05-08T08:38:07.833Z,16.61
2023-05-08T08:39:10.399Z,16.71
2023-05-08T08:40:07.840Z,16.75
2023-05-08T08:41:07.792Z,16.58
2023-05-08T08:42:07.771Z,16.69
2023-05-08T08:43:07.790Z,16.72
2023-05-08T08:44:07.755Z,16.74
2023-05-08T08:45:07.865Z,16.66
2023-05-08T08:46:07.757Z,16.60
2023-05-08T08:47:07.715Z,16.65
2023-05-08T08:48:07.818Z,16.76
2023-05-08T08:49:07.716Z,16.87
2023-05-08T08:50:07.689Z,16.96
2023-05-08T08:51:07.684Z,16.84
2023-05-08T08:52:07.660Z,16.96
2023-05-08T08:53:07.672Z,16.94
2023-05-08T08:54:07.651Z,17.05
2023-05-08T08:55:07.622Z,17.02
2023-05-08T08:56:07.631Z,17.06
2023-05-08T08:57:07.617Z,17.11
2023-05-08T08:58:07.595Z,17.14
2023-05-08T08:59:07.577Z,17.38
2023-05-08T09:00:07.581Z,17.60
2023-05-08T09:01:07.732Z,17.68
2023-05-08T09:02:07.578Z,17.64
2023-05-08T09:03:07.667Z,17.79
2023-05-08T09:04:07.765Z,17.83
2023-05-08T09:05:07.517Z,18.00
2023-05-08T09:06:07.501Z,18.10
2023-05-08T09:07:07.505Z,18.03
2023-05-08T09:08:07.485Z,18.07
2023-05-08T09:09:07.473Z,18.05
2023-05-08T09:10:07.503Z,18.19
2023-05-08T09:11:07.450Z,18.18
2023-05-08T09:12:07.444Z,18.29
2023-05-08T09:13:07.487Z,18.35
2023-05-08T09:14:07.435Z,18.44
2023-05-08T09:15:07.408Z,18.38
2023-05-08T09:16:07.448Z,18.49
2023-05-08T09:17:07.496Z,18.59
2023-05-08T09:18:07.390Z,18.84
2023-05-08T09:19:07.378Z,18.89
2023-05-08T09:20:07.350Z,19.07
2023-05-08T09:21:07.342Z,18.92
2023-05-08T09:22:07.343Z,18.98
2023-05-08T09:23:07.309Z,18.93
2023-05-08T09:24:07.319Z,19.04
2023-05-08T09:25:07.292Z,18.96
2023-05-08T09:26:07.336Z,18.92
2023-05-08T09:27:07.283Z,18.95
2023-05-08T09:28:07.261Z,18.84
2023-05-08T09:29:07.257Z,18.73
2023-05-08T09:30:07.244Z,18.59
2023-05-08T09:31:07.232Z,18.53
2023-05-08T09:32:07.228Z,18.44
2023-05-08T09:33:07.448Z,18.52
2023-05-08T09:34:07.197Z,18.56
2023-05-08T09:35:07.184Z,18.58
2023-05-08T09:36:07.172Z,18.60
2023-05-08T09:37:07.168Z,18.66
2023-05-08T09:38:07.181Z,18.55
2023-05-08T09:39:07.148Z,18.56
2023-05-08T09:40:07.134Z,18.59
2023-05-08T09:41:07.135Z,18.49
2023-05-08T09:42:07.123Z,18.43
2023-05-08T09:43:07.104Z,18.41
2023-05-08T09:44:07.109Z,18.44
2023-05-08T09:45:07.071Z,18.44
2023-05-08T09:46:07.116Z,18.41
2023-05-08T09:47:07.048Z,18.45
2023-05-08T09:48:07.128Z,18.56
2023-05-08T09:49:07.142Z,18.63
2023-05-08T09:50:07.050Z,18.65
2023-05-08T09:51:07.035Z,18.56
2023-05-08T09:52:07.057Z,18.58
2023-05-08T09:53:06.992Z,18.62
2023-05-08T09:54:06.973Z,18.52
2023-05-08T09:55:06.956Z,18.40
2023-05-08T09:56:06.970Z,18.33
2023-05-08T09:57:06.941Z,18.35
2023-05-08T09:58:06.958Z,18.29
2023-05-08T09:59:06.957Z,18.34
2023-05-08T10:00:06.956Z,18.37
2023-05-08T10:01:06.923Z,18.35
2023-05-08T10:02:06.890Z,18.43
2023-05-08T10:03:06.939Z,18.44
2023-05-08T10:04:06.988Z,18.45
2023-05-08T10:05:07.090Z,18.45
2023-05-08T10:06:06.847Z,18.62
2023-05-08T10:07:06.824Z,18.62
2023-05-08T10:08:06.821Z,18.77
2023-05-08T10:09:06.804Z,18.73
2023-05-08T10:10:06.819Z,18.71
2023-05-08T10:11:06.783Z,18.73
2023-05-08T10:12:06.795Z,18.86
2023-05-08T10:13:06.810Z,18.96
2023-05-08T10:14:06.762Z,18.98
2023-05-08T10:15:06.750Z,19.08
2023-05-08T10:16:06.744Z,19.14
2023-05-08T10:17:06.766Z,19.18
2023-05-08T10:18:06.844Z,19.22
2023-05-08T10:19:06.693Z,19.29
2023-05-08T10:20:06.701Z,19.33
2023-05-08T10:21:06.815Z,19.30
2023-05-08T10:22:06.679Z,19.37
2023-05-08T10:23:06.653Z,19.47
2023-05-08T10:24:06.641Z,19.51
2023-05-08T10:25:06.641Z,19.63
2023-05-08T10:26:06.634Z,19.70
2023-05-08T10:27:07.835Z,19.71
2023-05-08T10:28:06.612Z,19.76
2023-05-08T10:29:06.583Z,19.88
2023-05-08T10:30:06.572Z,19.92
2023-05-08T10:31:06.610Z,19.94
2023-05-08T10:32:06.562Z,20.00
2023-05-08T10:33:06.660Z,20.07
2023-05-08T10:34:06.537Z,20.06
2023-05-08T10:35:06.516Z,20.09
2023-05-08T10:36:06.533Z,20.09
2023-05-08T10:37:06.625Z,20.24
2023-05-08T10:38:06.497Z,20.29
2023-05-08T10:39:06.478Z,20.26
2023-05-08T10:40:06.476Z,20.39
2023-05-08T10:41:06.477Z,20.43
2023-05-08T10:42:06.445Z,20.50
2023-05-08T10:43:06.451Z,20.58
2023-05-08T10:44:06.420Z,20.63
2023-05-08T10:45:06.416Z,20.65
2023-05-08T10:46:06.487Z,20.67
2023-05-08T10:47:06.386Z,20.75
2023-05-08T10:48:06.433Z,20.84
2023-05-08T10:49:06.381Z,20.96
2023-05-08T10:50:06.365Z,21.03
2023-05-08T10:51:06.351Z,21.11
2023-05-08T10:52:06.345Z,21.24
2023-05-08T10:53:06.373Z,21.15
2023-05-08T10:54:06.313Z,21.27
2023-05-08T10:55:06.309Z,21.22
2023-05-08T10:56:06.323Z,21.37
2023-05-08T10:57:06.278Z,21.46
2023-05-08T10:58:06.285Z,21.42
2023-05-08T10:59:06.298Z,21.50
2023-05-08T11:00:06.262Z,21.60
2023-05-08T11:01:07.692Z,21.75
2023-05-08T11:02:06.277Z,21.73
2023-05-08T11:03:11.887Z,21.69
2023-05-08T11:04:07.342Z,21.57
2023-05-08T11:05:06.201Z,21.51
2023-05-08T11:06:06.178Z,21.36
2023-05-08T11:07:06.175Z,21.14
2023-05-08T11:08:06.148Z,21.22
2023-05-08T11:09:06.186Z,21.29
2023-05-08T11:10:06.123Z,21.40
2023-05-08T11:11:06.162Z,21.70
2023-05-08T11:12:06.116Z,21.85
2023-05-08T11:13:06.112Z,21.77
2023-05-08T11:14:06.106Z,21.69
2023-05-08T11:15:06.082Z,21.62
2023-05-08T11:16:06.096Z,21.61
2023-05-08T11:17:06.062Z,21.60
2023-05-08T11:18:06.110Z,21.61
2023-05-08T11:19:06.032Z,21.62
2023-05-08T11:20:06.027Z,21.64
2023-05-08T11:21:06.021Z,21.72
2023-05-08T11:22:05.997Z,21.69
2023-05-08T11:23:05.987Z,21.77
2023-05-08T11:24:05.971Z,21.72
2023-05-08T11:25:05.979Z,21.60
2023-05-08T11:26:05.967Z,21.52
2023-05-08T11:27:05.963Z,21.64
2023-05-08T11:28:05.936Z,21.72
2023-05-08T11:29:05.934Z,21.70
2023-05-08T11:30:06.003Z,21.64
2023-05-08T11:31:06.060Z,21.48
2023-05-08T11:32:05.935Z,21.46
2023-05-08T11:33:06.000Z,21.57
2023-05-08T11:34:05.857Z,21.60
2023-05-08T11:35:05.846Z,21.61
2023-05-08T11:36:05.845Z,21.69
2023-05-08T11:37:05.865Z,21.75
2023-05-08T11:38:05.816Z,21.85
2023-05-08T11:39:05.808Z,21.82
2023-05-08T11:40:05.788Z,21.85
2023-05-08T11:41:05.832Z,21.85
2023-05-08T11:42:05.770Z,21.93
2023-05-08T11:43:05.782Z,21.98
2023-05-08T11:44:05.749Z,22.11
2023-05-08T11:45:05.745Z,22.17
2023-05-08T11:46:05.766Z,22.04
2023-05-08T11:47:05.753Z,21.95
2023-05-08T11:48:05.731Z,21.75
2023-05-08T11:49:05.710Z,21.91
2023-05-08T11:50:05.682Z,21.93
2023-05-08T11:51:05.682Z,21.96
2023-05-08T11:52:05.667Z,21.95
2023-05-08T11:53:05.666Z,21.95
2023-05-08T11:54:05.641Z,22.06
2023-05-08T11:55:05.640Z,22.28
2023-05-08T11:56:05.621Z,22.23
2023-05-08T11:57:05.635Z,22.36
2023-05-08T11:58:05.595Z,22.45
2023-05-08T11:59:05.605Z,22.43
2023-05-08T12:00:05.573Z,22.43
2023-05-08T12:01:05.598Z,22.57
2023-05-08T12:02:09.137Z,22.48
2023-05-08T12:03:05.712Z,22.54
2023-05-08T12:04:05.897Z,22.70
2023-05-08T12:05:05.536Z,22.65
2023-05-08T12:06:05.508Z,22.62
2023-05-08T12:07:05.496Z,22.51
2023-05-08T12:08:05.490Z,22.51
2023-05-08T12:09:05.484Z,22.53
2023-05-08T12:10:05.479Z,22.44
2023-05-08T12:11:05.452Z,22.33
2023-05-08T12:12:05.440Z,22.38
2023-05-08T12:13:05.508Z,22.43
2023-05-08T12:14:05.440Z,22.59
2023-05-08T12:15:05.412Z,22.70
2023-05-08T12:16:05.392Z,22.73
2023-05-08T12:17:05.450Z,22.72
2023-05-08T12:18:05.410Z,22.59
2023-05-08T12:19:05.362Z,22.43
2023-05-08T12:20:05.369Z,22.45
2023-05-08T12:21:05.357Z,22.66
2023-05-08T12:22:05.328Z,22.96
2023-05-08T12:23:05.318Z,23.23
2023-05-08T12:24:05.335Z,23.40
2023-05-08T12:25:05.296Z,23.51
2023-05-08T12:26:05.285Z,23.83
2023-05-08T12:27:05.276Z,23.81
2023-05-08T12:28:05.260Z,23.83
2023-05-08T12:29:05.295Z,23.76
2023-05-08T12:30:05.274Z,23.68
2023-05-08T12:31:05.297Z,23.63
2023-05-08T12:32:05.222Z,23.68
2023-05-08T12:33:05.238Z,23.77
2023-05-08T12:34:05.194Z,23.78
2023-05-08T12:35:05.268Z,23.77
2023-05-08T12:36:05.174Z,23.73
2023-05-08T12:37:05.311Z,23.76
2023-05-08T12:38:05.155Z,23.55
2023-05-08T12:39:05.141Z,23.44
2023-05-08T12:40:05.148Z,23.41
2023-05-08T12:41:05.146Z,23.34
2023-05-08T12:42:05.118Z,23.47
2023-05-08T12:43:05.100Z,23.51
2023-05-08T12:44:05.085Z,23.65
2023-05-08T12:45:05.196Z,23.76
2023-05-08T12:46:05.123Z,23.93
2023-05-08T12:47:05.112Z,24.01
2023-05-08T12:48:05.110Z,23.99
2023-05-08T12:49:05.032Z,23.87
2023-05-08T12:50:05.028Z,23.78
2023-05-08T12:51:05.031Z,23.76
2023-05-08T12:52:04.999Z,23.50